Time;durP1;ratioP1;P1;durP2;ratioP2;P2;SDS_P1;SDS_P2;PMS_P1;PMS_P2;Temp;Humidity;BMP_temperature;BMP_pressure;BME280_temperature;BME280_humidity;BME280_pressure;Samples;Min_cycle;Max_cycle;Signal;HPM_P1;HPM_P2
2023/11/23 00:00:44;;;;;;;10.63;7.18;;;;;;;;;;5072994;28;20048;-62
2023/11/23 00:03:11;;;;;;;12.10;7.40;;;;;;;;;;5072504;28;20053;-62
2023/11/23 00:05:37;;;;;;;10.75;7.82;;;;;;;;;;5072813;28;20053;-62
2023/11/23 00:08:04;;;;;;;10.32;7.60;;;;;;;;;;5072706;28;20049;-62
2023/11/23 00:10:33;;;;;;;12.15;7.25;;;;;;;;;;5072297;28;20492;-62
2023/11/23 00:12:59;;;;;;;11.10;7.53;;;;;;;;;;5072743;28;20063;-62
2023/11/23 00:15:26;;;;;;;10.55;7.82;;;;;;;;;;5072393;28;20048;-62
2023/11/23 00:17:53;;;;;;;11.23;6.63;;;;;;;;;;5072170;28;20411;-61
2023/11/23 00:20:20;;;;;;;9.68;7.28;;;;;;;;;;5072130;28;20079;-60
2023/11/23 00:22:47;;;;;;;10.52;7.18;;;;;;;;;;5072509;28;20060;-61
2023/11/23 00:25:14;;;;;;;10.35;7.38;;;;;;;;;;5072140;28;20495;-60
2023/11/23 00:36:54;;;;;;;12.15;7.75;;;;;;;;;;5072881;28;20485;-60
2023/11/23 00:39:21;;;;;;;11.60;7.68;;;;;;;;;;5072724;28;20512;-61
2023/11/23 00:41:49;;;;;;;10.05;7.10;;;;;;;;;;5071640;28;20071;-61
2023/11/23 00:47:19;;;;;;;10.45;7.07;;;;;;;;;;5072679;28;20043;-60
2023/11/23 00:49:46;;;;;;;13.27;8.32;;;;;;;;;;5072193;28;20366;-61
2023/11/23 00:52:14;;;;;;;12.13;7.85;;;;;;;;;;5072261;28;20063;-61
2023/11/23 00:54:42;;;;;;;10.90;7.47;;;;;;;;;;5071857;28;20056;-60
2023/11/23 00:57:09;;;;;;;11.77;7.75;;;;;;;;;;5072180;28;20469;-61
2023/11/23 00:59:36;;;;;;;11.88;7.88;;;;;;;;;;5071870;28;20049;-60
2023/11/23 01:02:03;;;;;;;13.50;8.10;;;;;;;;;;5072035;28;20075;-61
2023/11/23 01:04:30;;;;;;;11.68;7.43;;;;;;;;;;5071503;28;20408;-61
2023/11/23 01:06:57;;;;;;;10.77;7.55;;;;;;;;;;5071670;28;20055;-61
2023/11/23 01:09:26;;;;;;;12.63;7.85;;;;;;;;;;5071568;28;20060;-61
2023/11/23 01:11:53;;;;;;;12.13;8.53;;;;;;;;;;5072145;28;20359;-60
2023/11/23 01:14:20;;;;;;;10.82;7.80;;;;;;;;;;5072010;28;20056;-60
2023/11/23 01:16:47;;;;;;;13.38;8.30;;;;;;;;;;5071788;28;20055;-60
2023/11/23 01:19:14;;;;;;;13.13;8.85;;;;;;;;;;5071841;28;20374;-61
2023/11/23 01:21:40;;;;;;;11.77;8.93;;;;;;;;;;5071878;28;20060;-60
2023/11/23 01:24:08;;;;;;;13.43;8.90;;;;;;;;;;5071570;28;20283;-60
2023/11/23 01:26:36;;;;;;;15.63;9.38;;;;;;;;;;5071723;28;20064;-61
2023/11/23 01:29:03;;;;;;;12.77;8.50;;;;;;;;;;5069703;28;20063;-60
2023/11/23 01:31:30;;;;;;;12.30;8.27;;;;;;;;;;5072013;28;20049;-60
2023/11/23 01:33:57;;;;;;;12.75;9.57;;;;;;;;;;5072099;28;20053;-60
2023/11/23 01:36:24;;;;;;;14.60;9.75;;;;;;;;;;5072081;28;20414;-60
2023/11/23 01:38:51;;;;;;;14.15;9.52;;;;;;;;;;5071600;28;20049;-60
2023/11/23 01:41:17;;;;;;;16.45;10.63;;;;;;;;;;5073354;28;20055;-60
2023/11/23 01:43:46;;;;;;;13.88;9.82;;;;;;;;;;5075520;28;20052;-60
2023/11/23 01:46:13;;;;;;;14.30;9.45;;;;;;;;;;5075342;28;20503;-60
2023/11/23 01:48:40;;;;;;;15.63;10.25;;;;;;;;;;5075830;28;20064;-60
2023/11/23 01:51:08;;;;;;;13.55;10.00;;;;;;;;;;5075808;28;20473;-60
2023/11/23 01:53:35;;;;;;;15.00;10.30;;;;;;;;;;5075413;28;20052;-60
2023/11/23 01:56:02;;;;;;;14.77;10.60;;;;;;;;;;5075221;28;20064;-60
2023/11/23 01:58:29;;;;;;;14.63;10.20;;;;;;;;;;5074858;28;20048;-60
2023/11/23 02:00:58;;;;;;;14.65;10.80;;;;;;;;;;5075577;28;20154;-60
2023/11/23 02:03:25;;;;;;;16.50;10.85;;;;;;;;;;5075543;28;20163;-62
2023/11/23 02:05:51;;;;;;;18.23;11.10;;;;;;;;;;5075106;28;20527;-59
2023/11/23 02:08:18;;;;;;;16.70;11.48;;;;;;;;;;5075093;28;20052;-59
2023/11/23 02:10:45;;;;;;;16.13;11.45;;;;;;;;;;5075216;28;20052;-60
2023/11/23 02:13:12;;;;;;;18.20;12.48;;;;;;;;;;5074811;28;20068;-60
2023/11/23 02:15:39;;;;;;;15.15;10.10;;;;;;;;;;5074842;28;20063;-60
2023/11/23 02:18:08;;;;;;;18.02;11.25;;;;;;;;;;5074948;28;20052;-60
2023/11/23 02:20:35;;;;;;;20.35;11.20;;;;;;;;;;5075118;28;20283;-62
2023/11/23 02:23:02;;;;;;;15.98;11.00;;;;;;;;;;5075129;28;20409;-60
2023/11/23 02:25:31;;;;;;;15.38;11.10;;;;;;;;;;5074690;28;20060;-60
2023/11/23 02:27:57;;;;;;;14.70;10.80;;;;;;;;;;5074887;28;20056;-62
2023/11/23 02:30:24;;;;;;;15.60;11.45;;;;;;;;;;5074463;28;20397;-60
2023/11/23 02:32:51;;;;;;;18.80;11.85;;;;;;;;;;5074465;28;20059;-60
2023/11/23 02:35:19;;;;;;;17.02;11.85;;;;;;;;;;5074821;28;20048;-60
2023/11/23 02:37:46;;;;;;;19.38;12.02;;;;;;;;;;5074644;28;20049;-61
2023/11/23 02:40:13;;;;;;;18.20;12.20;;;;;;;;;;5074534;28;20059;-60
2023/11/23 02:42:41;;;;;;;14.95;11.10;;;;;;;;;;5074230;28;20074;-61
2023/11/23 02:45:08;;;;;;;16.00;11.25;;;;;;;;;;5074404;28;20059;-61
2023/11/23 02:47:35;;;;;;;14.82;10.48;;;;;;;;;;5074315;28;20044;-61
2023/11/23 02:50:03;;;;;;;15.98;11.32;;;;;;;;;;5074525;28;20409;-61
2023/11/23 02:52:31;;;;;;;16.33;11.05;;;;;;;;;;5074003;28;20060;-61
2023/11/23 02:54:57;;;;;;;13.73;10.88;;;;;;;;;;5073996;28;20075;-61
2023/11/23 02:57:24;;;;;;;16.95;10.32;;;;;;;;;;5074354;28;20059;-61
2023/11/23 02:59:53;;;;;;;13.45;10.13;;;;;;;;;;5074172;28;20056;-61
2023/11/23 03:02:20;;;;;;;13.77;9.85;;;;;;;;;;5074632;28;20473;-61
2023/11/23 03:04:47;;;;;;;12.48;8.88;;;;;;;;;;5074163;28;20060;-61
2023/11/23 03:07:13;;;;;;;14.00;10.13;;;;;;;;;;5074056;28;20048;-61
2023/11/23 03:09:40;;;;;;;12.63;9.10;;;;;;;;;;5074054;28;20457;-61
2023/11/23 03:12:07;;;;;;;14.30;10.43;;;;;;;;;;5073481;28;20404;-61
2023/11/23 03:14:34;;;;;;;13.82;10.00;;;;;;;;;;5074028;28;20116;-61
2023/11/23 03:17:03;;;;;;;12.63;9.27;;;;;;;;;;5073913;28;20052;-61
2023/11/23 03:19:30;;;;;;;13.15;10.35;;;;;;;;;;5073510;28;20477;-60
2023/11/23 03:21:58;;;;;;;12.98;9.07;;;;;;;;;;5073955;28;20521;-61
2023/11/23 03:24:25;;;;;;;13.55;10.82;;;;;;;;;;5073522;28;20524;-60
2023/11/23 03:26:52;;;;;;;15.10;11.38;;;;;;;;;;5073588;28;20500;-61
2023/11/23 03:29:18;;;;;;;13.40;10.52;;;;;;;;;;5073121;28;20048;-60
2023/11/23 03:31:45;;;;;;;16.80;10.50;;;;;;;;;;5073546;28;20142;-61
2023/11/23 03:34:13;;;;;;;14.95;11.40;;;;;;;;;;5073181;28;20064;-60
2023/11/23 03:36:40;;;;;;;15.90;12.30;;;;;;;;;;5073420;28;20248;-60
2023/11/23 03:39:07;;;;;;;16.60;12.05;;;;;;;;;;5073125;28;20049;-60
2023/11/23 03:41:34;;;;;;;17.65;13.63;;;;;;;;;;5072555;28;20413;-61
2023/11/23 03:44:01;;;;;;;17.80;13.88;;;;;;;;;;5072839;28;20048;-60
2023/11/23 03:46:28;;;;;;;16.38;13.07;;;;;;;;;;5073114;28;20071;-60
2023/11/23 03:48:55;;;;;;;17.67;13.10;;;;;;;;;;5072761;28;20048;-60
2023/11/23 03:51:23;;;;;;;16.52;12.80;;;;;;;;;;5072753;28;20071;-60
2023/11/23 03:53:50;;;;;;;16.77;12.80;;;;;;;;;;5073019;28;20059;-60
2023/11/23 03:56:18;;;;;;;17.83;12.43;;;;;;;;;;5072956;28;20063;-60
2023/11/23 03:58:45;;;;;;;16.13;12.68;;;;;;;;;;5072718;28;20063;-60
2023/11/23 04:01:12;;;;;;;17.85;13.30;;;;;;;;;;5072976;28;20053;-61
2023/11/23 04:03:40;;;;;;;18.88;13.80;;;;;;;;;;5071837;28;20053;-61
2023/11/23 04:06:07;;;;;;;18.48;13.20;;;;;;;;;;5072738;28;20052;-60
2023/11/23 04:08:35;;;;;;;18.40;13.32;;;;;;;;;;5072847;28;20049;-60
2023/11/23 04:11:02;;;;;;;18.23;12.23;;;;;;;;;;5072574;28;20056;-61
2023/11/23 04:13:32;;;;;;;16.00;11.82;;;;;;;;;;5072702;28;20056;-61
2023/11/23 04:15:58;;;;;;;18.38;12.10;;;;;;;;;;5072321;28;20052;-61
2023/11/23 04:18:25;;;;;;;17.25;11.90;;;;;;;;;;5072571;28;20048;-60
2023/11/23 04:20:52;;;;;;;17.88;13.40;;;;;;;;;;5072476;28;20068;-60
2023/11/23 04:23:19;;;;;;;17.05;11.50;;;;;;;;;;5072151;28;20075;-60
2023/11/23 04:25:47;;;;;;;15.38;10.95;;;;;;;;;;5072563;28;20059;-60
2023/11/23 04:28:13;;;;;;;19.08;12.88;;;;;;;;;;5072964;28;20051;-60
2023/11/23 04:30:40;;;;;;;17.13;11.90;;;;;;;;;;5072484;28;20524;-60
2023/11/23 04:33:07;;;;;;;17.02;13.02;;;;;;;;;;5072537;28;20511;-60
2023/11/23 04:35:34;;;;;;;16.30;12.73;;;;;;;;;;5072268;28;20048;-60
2023/11/23 04:38:01;;;;;;;17.58;14.13;;;;;;;;;;5072487;28;20508;-60
2023/11/23 04:40:28;;;;;;;18.95;14.20;;;;;;;;;;5071994;28;20060;-62
2023/11/23 04:42:56;;;;;;;20.00;14.68;;;;;;;;;;5072373;28;20057;-60
2023/11/23 04:45:23;;;;;;;19.52;14.27;;;;;;;;;;5072260;28;20052;-63
2023/11/23 04:47:50;;;;;;;19.95;15.25;;;;;;;;;;5072147;28;20385;-60
2023/11/23 04:50:16;;;;;;;20.67;15.60;;;;;;;;;;5072395;28;20079;-60
2023/11/23 04:52:43;;;;;;;21.75;15.98;;;;;;;;;;5072299;28;20382;-63
2023/11/23 04:55:10;;;;;;;21.90;16.23;;;;;;;;;;5071850;28;20052;-62
2023/11/23 04:57:37;;;;;;;19.48;16.42;;;;;;;;;;5071900;28;20060;-62
2023/11/23 05:00:06;;;;;;;20.85;16.52;;;;;;;;;;5071895;28;20524;-62
2023/11/23 05:02:32;;;;;;;22.20;16.88;;;;;;;;;;5072203;28;20424;-62
2023/11/23 05:04:59;;;;;;;22.98;16.35;;;;;;;;;;5072131;28;20393;-62
2023/11/23 05:07:27;;;;;;;20.25;16.67;;;;;;;;;;5072334;28;20416;-61
2023/11/23 05:09:54;;;;;;;24.60;17.92;;;;;;;;;;5072212;28;20048;-60
2023/11/23 05:12:21;;;;;;;25.02;19.15;;;;;;;;;;5071711;28;20492;-60
2023/11/23 05:14:47;;;;;;;26.40;17.58;;;;;;;;;;5073260;28;20516;-60
2023/11/23 05:17:15;;;;;;;27.05;20.05;;;;;;;;;;5076373;28;20476;-61
2023/11/23 05:19:42;;;;;;;25.63;19.52;;;;;;;;;;5075776;28;20056;-61
2023/11/23 05:22:09;;;;;;;29.83;20.30;;;;;;;;;;5076180;28;20052;-60
2023/11/23 05:24:36;;;;;;;27.20;18.05;;;;;;;;;;5075732;28;20074;-60
2023/11/23 05:27:03;;;;;;;29.75;19.67;;;;;;;;;;5075874;28;20056;-61
2023/11/23 05:29:29;;;;;;;27.88;19.95;;;;;;;;;;5075853;28;20059;-60
2023/11/23 05:31:56;;;;;;;25.48;20.42;;;;;;;;;;5075965;28;20072;-61
2023/11/23 05:34:24;;;;;;;29.00;20.15;;;;;;;;;;5075521;28;20060;-61
2023/11/23 05:36:51;;;;;;;26.48;19.65;;;;;;;;;;5075885;28;20057;-61
2023/11/23 05:39:18;;;;;;;28.15;20.45;;;;;;;;;;5075675;28;20052;-60
2023/11/23 05:41:45;;;;;;;25.60;19.23;;;;;;;;;;5075087;28;20493;-61
2023/11/23 05:44:12;;;;;;;32.50;22.55;;;;;;;;;;5075675;28;20473;-60
2023/11/23 05:46:39;;;;;;;28.85;21.45;;;;;;;;;;5075480;28;20052;-61
2023/11/23 05:49:06;;;;;;;29.67;21.33;;;;;;;;;;5075277;28;20048;-62
2023/11/23 05:51:34;;;;;;;27.33;20.65;;;;;;;;;;5075222;28;20052;-62
2023/11/23 05:54:01;;;;;;;29.05;20.17;;;;;;;;;;5075618;28;20048;-61
2023/11/23 05:56:28;;;;;;;28.48;20.13;;;;;;;;;;5075348;28;20072;-62
2023/11/23 05:58:55;;;;;;;26.83;19.20;;;;;;;;;;5075391;28;20048;-61
2023/11/23 06:01:21;;;;;;;26.40;18.42;;;;;;;;;;5075091;28;20063;-61
2023/11/23 06:03:49;;;;;;;29.98;20.95;;;;;;;;;;5074849;28;20052;-61
2023/11/23 06:06:19;;;;;;;26.05;19.80;;;;;;;;;;5074908;28;20079;-61
2023/11/23 06:08:47;;;;;;;25.95;19.20;;;;;;;;;;5074612;28;20060;-62
2023/11/23 06:11:16;;;;;;;25.65;19.90;;;;;;;;;;5074820;28;20056;-61
2023/11/23 06:13:43;;;;;;;28.17;20.85;;;;;;;;;;5074725;28;20048;-61
2023/11/23 06:16:09;;;;;;;30.77;21.58;;;;;;;;;;5074556;28;20056;-62
2023/11/23 06:18:37;;;;;;;28.15;21.38;;;;;;;;;;5075048;28;20052;-62
2023/11/23 06:21:04;;;;;;;26.55;18.83;;;;;;;;;;5074711;28;20052;-62
2023/11/23 06:23:31;;;;;;;31.30;22.42;;;;;;;;;;5074834;28;20052;-62
2023/11/23 06:25:59;;;;;;;27.00;21.05;;;;;;;;;;5073904;28;20056;-61
2023/11/23 06:28:26;;;;;;;27.65;21.05;;;;;;;;;;5074239;28;20052;-62
2023/11/23 06:30:52;;;;;;;30.08;20.65;;;;;;;;;;5074267;28;20135;-62
2023/11/23 06:33:19;;;;;;;25.95;20.95;;;;;;;;;;5074692;28;20053;-61
2023/11/23 06:35:46;;;;;;;27.35;21.13;;;;;;;;;;5074419;28;20060;-62
2023/11/23 06:38:14;;;;;;;26.77;20.27;;;;;;;;;;5074076;28;20067;-61
2023/11/23 06:40:41;;;;;;;25.15;20.08;;;;;;;;;;5073791;28;20061;-61
2023/11/23 06:43:09;;;;;;;28.02;21.80;;;;;;;;;;5074127;28;20045;-61
2023/11/23 06:45:36;;;;;;;27.48;20.98;;;;;;;;;;5073995;28;20389;-61
2023/11/23 06:48:02;;;;;;;28.00;21.90;;;;;;;;;;5074065;28;20071;-61
2023/11/23 06:50:29;;;;;;;25.30;20.08;;;;;;;;;;5074080;28;20041;-61
2023/11/23 06:52:56;;;;;;;25.05;19.90;;;;;;;;;;5073595;28;20059;-61
2023/11/23 06:55:23;;;;;;;27.30;19.63;;;;;;;;;;5073339;28;20056;-61
2023/11/23 06:57:49;;;;;;;26.23;20.50;;;;;;;;;;5073906;28;20052;-61
2023/11/23 07:00:22;;;;;;;26.27;20.05;;;;;;;;;;5073635;28;20449;-60
2023/11/23 07:02:50;;;;;;;26.67;19.67;;;;;;;;;;5073761;28;20063;-62
2023/11/23 07:05:18;;;;;;;28.50;20.30;;;;;;;;;;5073640;28;20492;-61
2023/11/23 07:07:47;;;;;;;23.15;18.40;;;;;;;;;;5073871;28;20060;-61
2023/11/23 07:10:14;;;;;;;27.35;19.67;;;;;;;;;;5073642;28;20401;-60
2023/11/23 07:12:40;;;;;;;26.70;20.45;;;;;;;;;;5073704;28;20048;-61
2023/11/23 07:15:09;;;;;;;23.05;17.95;;;;;;;;;;5073647;28;20064;-62
2023/11/23 07:17:37;;;;;;;24.80;19.55;;;;;;;;;;5073680;28;20052;-61
2023/11/23 07:20:05;;;;;;;22.45;18.33;;;;;;;;;;5073625;28;20418;-61
2023/11/23 07:22:32;;;;;;;23.60;18.88;;;;;;;;;;5073013;28;20079;-61
2023/11/23 07:24:59;;;;;;;24.20;18.98;;;;;;;;;;5073189;28;20484;-62
2023/11/23 07:27:27;;;;;;;26.77;18.70;;;;;;;;;;5073548;28;20404;-61
2023/11/23 07:29:53;;;;;;;26.85;18.95;;;;;;;;;;5073043;28;20048;-62
2023/11/23 07:32:20;;;;;;;27.08;18.20;;;;;;;;;;5073148;28;20068;-61
2023/11/23 07:34:48;;;;;;;24.00;18.75;;;;;;;;;;5072972;28;20052;-61
2023/11/23 07:37:15;;;;;;;26.58;19.70;;;;;;;;;;5073592;28;20059;-62
2023/11/23 07:39:42;;;;;;;26.08;19.38;;;;;;;;;;5073102;28;20052;-62
2023/11/23 07:42:09;;;;;;;26.45;18.00;;;;;;;;;;5072770;28;20061;-61
2023/11/23 07:44:36;;;;;;;24.25;19.17;;;;;;;;;;5072910;28;20045;-61
2023/11/23 07:47:02;;;;;;;23.85;17.67;;;;;;;;;;5073262;28;20053;-62
2023/11/23 07:49:29;;;;;;;25.40;19.58;;;;;;;;;;5072891;28;20052;-61
2023/11/23 07:51:58;;;;;;;27.67;19.67;;;;;;;;;;5073198;28;20052;-61
2023/11/23 07:54:24;;;;;;;24.50;19.48;;;;;;;;;;5072900;28;20052;-62
2023/11/23 07:56:53;;;;;;;26.90;18.63;;;;;;;;;;5072699;28;20048;-61
2023/11/23 07:59:19;;;;;;;22.83;19.20;;;;;;;;;;5072844;28;20053;-61
2023/11/23 08:01:46;;;;;;;23.92;19.50;;;;;;;;;;5072881;28;20075;-62
2023/11/23 08:04:13;;;;;;;23.80;20.00;;;;;;;;;;5072829;28;20373;-62
2023/11/23 08:06:40;;;;;;;25.15;18.42;;;;;;;;;;5072941;28;20063;-61
2023/11/23 08:09:14;;;;;;;24.25;18.23;;;;;;;;;;5072491;28;20516;-61
2023/11/23 08:11:41;;;;;;;26.92;20.85;;;;;;;;;;5072750;28;20378;-62
2023/11/23 08:14:08;;;;;;;22.17;18.98;;;;;;;;;;5072279;28;20063;-62
2023/11/23 08:16:35;;;;;;;23.75;20.13;;;;;;;;;;5072657;28;20049;-61
2023/11/23 08:19:03;;;;;;;25.40;19.55;;;;;;;;;;5072603;28;20060;-62
2023/11/23 08:21:30;;;;;;;24.95;20.05;;;;;;;;;;5072227;28;20059;-61
2023/11/23 08:23:56;;;;;;;24.27;19.38;;;;;;;;;;5072285;28;20154;-62
2023/11/23 08:26:25;;;;;;;29.80;20.77;;;;;;;;;;5072336;28;20063;-62
2023/11/23 08:28:52;;;;;;;25.67;19.13;;;;;;;;;;5072484;28;20056;-61
2023/11/23 08:31:20;;;;;;;22.65;19.02;;;;;;;;;;5072274;28;20052;-61
2023/11/23 08:33:47;;;;;;;24.20;18.30;;;;;;;;;;5072076;28;20048;-61
2023/11/23 08:36:15;;;;;;;24.95;18.35;;;;;;;;;;5072286;28;20048;-61
2023/11/23 08:38:41;;;;;;;20.73;18.13;;;;;;;;;;5072032;28;20079;-62
2023/11/23 08:41:08;;;;;;;26.00;19.38;;;;;;;;;;5070364;28;20052;-62
2023/11/23 08:43:37;;;;;;;23.98;17.58;;;;;;;;;;5071846;28;20059;-62
2023/11/23 08:46:04;;;;;;;25.85;19.35;;;;;;;;;;5071969;28;20048;-61
2023/11/23 08:48:31;;;;;;;22.15;17.85;;;;;;;;;;5072114;28;20069;-61
2023/11/23 08:50:58;;;;;;;22.52;17.60;;;;;;;;;;5071542;28;20053;-61
2023/11/23 08:53:25;;;;;;;24.08;18.73;;;;;;;;;;5072217;28;20068;-62
2023/11/23 08:55:54;;;;;;;21.50;18.13;;;;;;;;;;5071845;28;20052;-62
2023/11/23 08:58:21;;;;;;;22.58;18.25;;;;;;;;;;5072232;28;20049;-62
2023/11/23 09:00:49;;;;;;;19.95;16.60;;;;;;;;;;5072047;28;20374;-61
2023/11/23 09:03:16;;;;;;;23.85;17.45;;;;;;;;;;5072205;28;20048;-62
2023/11/23 09:05:44;;;;;;;21.63;17.05;;;;;;;;;;5071859;28;20052;-61
2023/11/23 09:08:10;;;;;;;24.98;20.17;;;;;;;;;;5071927;28;20059;-62
2023/11/23 09:10:37;;;;;;;22.90;17.83;;;;;;;;;;5072154;28;20469;-62
2023/11/23 09:13:05;;;;;;;22.20;18.58;;;;;;;;;;5071740;28;20049;-61
2023/11/23 09:15:32;;;;;;;21.67;17.85;;;;;;;;;;5072060;28;20059;-62
2023/11/23 09:18:00;;;;;;;22.05;16.98;;;;;;;;;;5072055;28;20408;-62
2023/11/23 09:20:27;;;;;;;22.40;17.20;;;;;;;;;;5071685;28;20416;-63
2023/11/23 09:22:54;;;;;;;22.27;18.45;;;;;;;;;;5072058;28;20056;-61
2023/11/23 09:25:21;;;;;;;21.27;17.60;;;;;;;;;;5071471;28;20071;-61
2023/11/23 09:27:49;;;;;;;25.33;18.48;;;;;;;;;;5072196;28;20052;-61
2023/11/23 09:30:16;;;;;;;22.20;18.42;;;;;;;;;;5071708;28;20409;-62
2023/11/23 09:32:43;;;;;;;20.73;17.45;;;;;;;;;;5071890;28;20056;-62
2023/11/23 09:35:11;;;;;;;23.20;18.83;;;;;;;;;;5071442;28;20055;-61
2023/11/23 09:37:39;;;;;;;22.92;18.58;;;;;;;;;;5071852;28;20052;-61
2023/11/23 09:40:09;;;;;;;21.85;18.73;;;;;;;;;;5071596;28;20055;-62
2023/11/23 09:42:35;;;;;;;;;;;;;;;;;;5071668;28;20060;-62
2023/11/23 09:45:03;;;;;;;26.75;20.05;;;;;;;;;;5071423;28;19927;-62
2023/11/23 09:47:31;;;;;;;24.02;19.75;;;;;;;;;;5072002;28;20134;-62
2023/11/23 09:49:59;;;;;;;26.88;20.10;;;;;;;;;;5071477;28;20064;-61
2023/11/23 09:52:28;;;;;;;26.85;20.52;;;;;;;;;;5071801;28;20055;-62
2023/11/23 09:54:56;;;;;;;25.90;20.67;;;;;;;;;;5071510;28;20060;-62
2023/11/23 09:57:23;;;;;;;25.55;19.02;;;;;;;;;;5071856;28;20053;-62
2023/11/23 09:59:50;;;;;;;25.38;20.08;;;;;;;;;;5071857;28;20060;-62
2023/11/23 10:02:19;;;;;;;27.17;20.08;;;;;;;;;;5073414;28;20504;-62
2023/11/23 10:04:47;;;;;;;26.05;20.67;;;;;;;;;;5074653;28;20413;-61
2023/11/23 10:07:16;;;;;;;26.92;20.20;;;;;;;;;;5074862;28;20144;-62
2023/11/23 10:09:44;;;;;;;25.70;19.65;;;;;;;;;;5074824;28;20057;-62
2023/11/23 10:12:11;;;;;;;24.20;19.35;;;;;;;;;;5074564;28;20048;-62
2023/11/23 10:14:39;;;;;;;26.45;20.90;;;;;;;;;;5074153;28;20056;-62
2023/11/23 10:17:06;;;;;;;27.02;19.65;;;;;;;;;;5074602;28;20056;-63
2023/11/23 10:19:33;;;;;;;24.42;19.77;;;;;;;;;;5074372;28;20064;-62
2023/11/23 10:22:02;;;;;;;27.45;20.15;;;;;;;;;;5074881;28;20469;-62
2023/11/23 10:24:29;;;;;;;23.85;20.73;;;;;;;;;;5074726;28;20060;-62
2023/11/23 10:26:57;;;;;;;23.38;19.05;;;;;;;;;;5074939;28;20052;-62
2023/11/23 10:29:28;;;;;;;23.92;18.48;;;;;;;;;;5074762;28;20071;-62
2023/11/23 10:31:56;;;;;;;25.52;20.27;;;;;;;;;;5074968;28;20048;-62
2023/11/23 10:34:25;;;;;;;24.52;19.30;;;;;;;;;;5074855;28;20064;-62
2023/11/23 10:36:53;;;;;;;23.50;19.00;;;;;;;;;;5075008;28;20067;-62
2023/11/23 10:39:22;;;;;;;21.77;18.75;;;;;;;;;;5074637;28;20079;-61
2023/11/23 10:41:49;;;;;;;22.83;18.38;;;;;;;;;;5073781;28;20059;-62
2023/11/23 10:44:18;;;;;;;21.52;17.95;;;;;;;;;;5074049;28;20060;-62
2023/11/23 10:46:47;;;;;;;22.38;18.15;;;;;;;;;;5074498;28;20079;-61
2023/11/23 10:49:14;;;;;;;21.75;17.50;;;;;;;;;;5073904;28;20059;-62
2023/11/23 10:51:42;;;;;;;25.60;17.38;;;;;;;;;;5074249;28;20469;-62
2023/11/23 10:54:11;;;;;;;21.70;16.58;;;;;;;;;;5073866;28;20052;-62
2023/11/23 10:56:40;;;;;;;20.65;17.10;;;;;;;;;;5074070;28;20052;-61
2023/11/23 10:59:10;;;;;;;26.92;18.05;;;;;;;;;;5074116;28;20056;-62
2023/11/23 11:01:36;;;;;;;;;;;;;;;;;;5074251;28;20049;-62
2023/11/23 11:04:05;;;;;;;21.33;17.75;;;;;;;;;;5073383;28;19931;-61
2023/11/23 11:06:38;;;;;;;23.35;16.80;;;;;;;;;;5073898;28;20106;-62
2023/11/23 11:09:13;;;;;;;21.30;16.70;;;;;;;;;;5073635;28;20057;-62
2023/11/23 11:11:42;;;;;;;21.67;17.00;;;;;;;;;;5074019;28;20392;-62
2023/11/23 11:14:13;;;;;;;19.67;16.50;;;;;;;;;;5073619;28;20382;-61
2023/11/23 11:16:40;;;;;;;21.75;16.48;;;;;;;;;;5074132;28;20075;-61
2023/11/23 11:19:11;;;;;;;21.50;15.85;;;;;;;;;;5073434;28;20048;-61
2023/11/23 11:21:46;;;;;;;23.15;16.65;;;;;;;;;;5073795;28;20394;-61
2023/11/23 11:24:20;;;;;;;19.90;16.75;;;;;;;;;;5073549;28;20048;-61
2023/11/23 11:26:47;;;;;;;19.20;15.85;;;;;;;;;;5073698;28;20053;-60
2023/11/23 11:29:16;;;;;;;19.58;15.60;;;;;;;;;;5073416;28;20404;-67
2023/11/23 11:31:44;;;;;;;21.70;16.17;;;;;;;;;;5073298;28;20057;-68
2023/11/23 11:34:19;;;;;;;19.10;14.63;;;;;;;;;;5073359;28;20052;-68
2023/11/23 11:36:47;;;;;;;19.83;15.55;;;;;;;;;;5073123;28;20504;-68
2023/11/23 11:39:15;;;;;;;18.42;14.07;;;;;;;;;;5073143;28;20390;-69
2023/11/23 11:41:42;;;;;;;18.92;15.38;;;;;;;;;;5072283;28;20060;-68
2023/11/23 11:44:11;;;;;;;18.30;14.07;;;;;;;;;;5072926;28;20052;-68
2023/11/23 11:46:38;;;;;;;17.20;13.60;;;;;;;;;;5072865;28;20048;-68
2023/11/23 11:49:06;;;;;;;17.42;14.23;;;;;;;;;;5072888;28;20059;-68
2023/11/23 11:51:34;;;;;;;17.45;13.23;;;;;;;;;;5073208;28;20056;-68
2023/11/23 11:54:01;;;;;;;15.70;12.93;;;;;;;;;;5072855;28;20063;-69
2023/11/23 11:56:28;;;;;;;16.67;12.80;;;;;;;;;;5072504;28;20052;-70
2023/11/23 11:58:55;;;;;;;16.90;12.07;;;;;;;;;;5072765;28;20052;-69
2023/11/23 12:01:22;;;;;;;15.18;12.00;;;;;;;;;;5072062;28;20049;-68
2023/11/23 12:03:50;;;;;;;15.00;11.77;;;;;;;;;;5072840;28;20052;-69
2023/11/23 12:06:18;;;;;;;15.40;11.60;;;;;;;;;;5072774;28;20462;-68
2023/11/23 12:08:46;;;;;;;17.23;11.13;;;;;;;;;;5072627;28;20401;-69
2023/11/23 12:11:22;;;;;;;16.75;11.20;;;;;;;;;;5072313;28;20060;-69
2023/11/23 12:13:53;;;;;;;13.75;10.90;;;;;;;;;;5072526;28;20079;-71
2023/11/23 12:16:19;;;;;;;12.73;11.00;;;;;;;;;;5073064;28;20049;-69
2023/11/23 12:18:48;;;;;;;12.68;10.13;;;;;;;;;;5072359;28;20059;-69
2023/11/23 12:21:15;;;;;;;22.40;9.73;;;;;;;;;;5072372;28;20473;-63
2023/11/23 12:23:42;;;;;;;14.10;9.98;;;;;;;;;;5071761;28;20413;-63
2023/11/23 12:26:09;;;;;;;;;;;;;;;;;;5072182;28;20053;-62
2023/11/23 12:28:37;;;;;;;11.00;8.73;;;;;;;;;;5072477;28;19920;-64
2023/11/23 12:31:04;;;;;;;11.95;9.10;;;;;;;;;;5072256;28;20052;-62
2023/11/23 12:33:32;;;;;;;12.95;8.75;;;;;;;;;;5072199;28;20051;-63
2023/11/23 12:36:00;;;;;;;12.25;8.88;;;;;;;;;;5072198;28;20393;-62
2023/11/23 12:38:27;;;;;;;13.00;9.55;;;;;;;;;;5071838;28;20052;-63
2023/11/23 12:40:53;;;;;;;11.27;8.63;;;;;;;;;;5071432;28;20061;-63
2023/11/23 12:43:22;;;;;;;12.70;8.80;;;;;;;;;;5071781;28;20052;-63
2023/11/23 12:45:51;;;;;;;14.02;9.07;;;;;;;;;;5072100;28;20048;-63
2023/11/23 12:48:18;;;;;;;12.05;8.63;;;;;;;;;;5071998;28;20075;-64
2023/11/23 12:50:45;;;;;;;11.70;8.05;;;;;;;;;;5071561;28;20075;-62
2023/11/23 12:53:12;;;;;;;11.05;8.23;;;;;;;;;;5071599;28;20059;-63
2023/11/23 12:55:39;;;;;;;12.75;8.07;;;;;;;;;;5071798;28;20059;-63
2023/11/23 12:58:05;;;;;;;15.70;10.20;;;;;;;;;;5071910;28;20067;-63
2023/11/23 13:00:35;;;;;;;9.40;8.25;;;;;;;;;;5071997;28;20052;-64
2023/11/23 13:03:05;;;;;;;11.23;8.05;;;;;;;;;;5071875;28;20163;-63
2023/11/23 13:05:33;;;;;;;11.10;7.75;;;;;;;;;;5071607;28;20056;-64
2023/11/23 13:08:00;;;;;;;9.40;8.05;;;;;;;;;;5071855;28;20048;-64
2023/11/23 13:10:27;;;;;;;11.80;8.48;;;;;;;;;;5071674;28;20052;-63
2023/11/23 13:12:56;;;;;;;10.43;8.38;;;;;;;;;;5071680;28;20057;-63
2023/11/23 13:15:23;;;;;;;11.77;7.93;;;;;;;;;;5071597;28;20053;-63
2023/11/23 13:17:51;;;;;;;10.45;7.82;;;;;;;;;;5071419;28;20994;-63
2023/11/23 13:20:20;;;;;;;8.60;7.05;;;;;;;;;;5070830;28;20339;-63
2023/11/23 13:22:47;;;;;;;10.85;7.80;;;;;;;;;;5070998;28;20048;-63
2023/11/23 13:25:16;;;;;;;10.90;7.90;;;;;;;;;;5071326;28;20052;-63
2023/11/23 13:27:43;;;;;;;10.60;7.38;;;;;;;;;;5071611;28;20060;-64
2023/11/23 13:30:11;;;;;;;9.90;7.78;;;;;;;;;;5071318;28;20053;-63
2023/11/23 13:32:38;;;;;;;9.15;6.97;;;;;;;;;;5071150;28;20057;-64
2023/11/23 13:35:05;;;;;;;11.13;8.23;;;;;;;;;;5071297;28;20057;-64
2023/11/23 13:37:34;;;;;;;8.43;6.88;;;;;;;;;;5075058;28;20049;-65
2023/11/23 13:40:07;;;;;;;10.13;7.60;;;;;;;;;;5075612;28;20052;-65
2023/11/23 13:42:35;;;;;;;9.68;7.38;;;;;;;;;;5074934;28;20494;-64
2023/11/23 13:45:06;;;;;;;9.60;7.30;;;;;;;;;;5075094;28;20056;-65
2023/11/23 13:47:33;;;;;;;8.43;7.00;;;;;;;;;;5074918;28;20052;-65
2023/11/23 13:50:00;;;;;;;8.50;6.50;;;;;;;;;;5075163;28;20063;-65
2023/11/23 13:52:27;;;;;;;8.85;7.10;;;;;;;;;;5074794;28;20052;-65
2023/11/23 13:54:55;;;;;;;7.95;6.63;;;;;;;;;;5075234;28;20350;-65
2023/11/23 13:57:22;;;;;;;9.32;7.20;;;;;;;;;;5075194;28;20057;-65
2023/11/23 13:59:49;;;;;;;7.60;6.45;;;;;;;;;;5074781;28;20064;-65
2023/11/23 14:02:16;;;;;;;8.82;6.45;;;;;;;;;;5075150;28;20048;-65
2023/11/23 14:04:43;;;;;;;9.63;6.70;;;;;;;;;;5074819;28;20048;-65
2023/11/23 14:07:10;;;;;;;9.90;7.22;;;;;;;;;;5075188;28;20060;-65
2023/11/23 14:09:40;;;;;;;8.98;6.40;;;;;;;;;;5074606;28;20390;-65
2023/11/23 14:12:09;;;;;;;11.73;7.05;;;;;;;;;;5074892;28;20056;-65
2023/11/23 14:14:36;;;;;;;9.25;6.78;;;;;;;;;;5074593;28;20174;-65
2023/11/23 14:17:03;;;;;;;8.55;6.38;;;;;;;;;;5074957;28;20063;-64
2023/11/23 14:19:29;;;;;;;9.25;6.45;;;;;;;;;;5074402;28;20056;-65
2023/11/23 14:22:00;;;;;;;9.93;6.85;;;;;;;;;;5074780;28;20064;-65
2023/11/23 14:24:27;;;;;;;9.30;6.72;;;;;;;;;;5074404;28;20056;-65
2023/11/23 14:26:55;;;;;;;10.88;6.50;;;;;;;;;;5074789;28;20060;-65
2023/11/23 14:29:24;;;;;;;11.60;6.65;;;;;;;;;;5074267;28;20056;-65
2023/11/23 14:31:51;;;;;;;9.52;6.00;;;;;;;;;;5074807;28;20063;-65
2023/11/23 14:34:21;;;;;;;8.57;6.65;;;;;;;;;;5074749;28;20056;-65
2023/11/23 14:36:48;;;;;;;8.18;6.25;;;;;;;;;;5074737;28;20052;-65